WMT7SR LIMC-LHBP
Flight info
| Callsign | WMT7SR |
|---|---|
| Flight time | 1h 18m |
| Altitude | 34000 |
| Route | OSKOR DCT NESTI DCT MALUG/N0444F350 DCT GOTAR DCT SIRDU DCT OGVUN DCT VAJDI |
| Aircraft | A321/M-SDE1E2E3FGIJ1J4RWXY/LB1G1 |
Departure
| Time | 2026-05-04 11:12 |
|---|---|
| Airport | Milan Malpensa International Airport (LIMC) |
Arrival
| Time | 2026-05-04 12:30 |
|---|---|
| Airport | Budapest Liszt Ferenc International Airport (LHBP) |
| Time | Latitude | Longitude | Altitude | Speed | Heading |
|---|---|---|---|---|---|
| 2026-05-04 10:40 | 45.63041 | 8.71831 | 725 ft | 0 kts | 79° |
| 2026-05-04 11:02 | 45.63042 | 8.71840 | 752 ft | 2 kts | 79° |
| 2026-05-04 11:02 | 45.63046 | 8.71869 | 748 ft | 4 kts | 79° |
| 2026-05-04 11:05 | 45.61870 | 8.72247 | 750 ft | 22 kts | 167° |
| 2026-05-04 11:06 | 45.61755 | 8.72281 | 753 ft | 23 kts | 168° |
| 2026-05-04 11:06 | 45.61595 | 8.72325 | 749 ft | 24 kts | 169° |
| 2026-05-04 11:06 | 45.61443 | 8.72363 | 751 ft | 18 kts | 170° |
| 2026-05-04 11:08 | 45.61080 | 8.72614 | 750 ft | 17 kts | 109° |
| 2026-05-04 11:10 | 45.61602 | 8.73221 | 752 ft | 12 kts | 23° |
| 2026-05-04 11:12 | 45.62602 | 8.73465 | 747 ft | 126 kts | 349° |
| 2026-05-04 11:12 | 45.63600 | 8.73186 | 747 ft | 168 kts | 349° |
| 2026-05-04 11:12 | 45.64832 | 8.72870 | 1052 ft | 183 kts | 347° |
| 2026-05-04 11:12 | 45.66093 | 8.72841 | 1637 ft | 184 kts | 14° |
| 2026-05-04 11:13 | 45.67206 | 8.73759 | 2115 ft | 195 kts | 48° |
| 2026-05-04 11:13 | 45.68138 | 8.75290 | 2524 ft | 210 kts | 51° |
| 2026-05-04 11:13 | 45.69096 | 8.76906 | 3059 ft | 215 kts | 51° |
| 2026-05-04 11:13 | 45.70070 | 8.78550 | 3658 ft | 218 kts | 51° |
| 2026-05-04 11:14 | 45.71041 | 8.80190 | 4258 ft | 219 kts | 51° |
| 2026-05-04 11:14 | 45.72021 | 8.81864 | 4892 ft | 220 kts | 56° |
| 2026-05-04 11:14 | 45.72634 | 8.83840 | 5470 ft | 218 kts | 83° |
| 2026-05-04 11:16 | 45.69246 | 8.93007 | 6034 ft | 234 kts | 128° |
| 2026-05-04 11:16 | 45.68298 | 8.94864 | 6033 ft | 234 kts | 127° |
| 2026-05-04 11:16 | 45.67600 | 8.96235 | 6241 ft | 237 kts | 127° |
| 2026-05-04 11:17 | 45.67593 | 8.96249 | 6243 ft | 237 kts | 127° |
| 2026-05-04 11:17 | 45.66631 | 8.98138 | 7062 ft | 237 kts | 128° |
| 2026-05-04 11:19 | 45.64653 | 9.13984 | 10539 ft | 316 kts | 92° |
| 2026-05-04 11:19 | 45.64670 | 9.17237 | 10719 ft | 337 kts | 92° |
| 2026-05-04 11:19 | 45.64687 | 9.20637 | 11212 ft | 346 kts | 92° |
| 2026-05-04 11:19 | 45.64708 | 9.24098 | 11815 ft | 351 kts | 92° |
| 2026-05-04 11:20 | 45.64731 | 9.27608 | 12448 ft | 356 kts | 92° |
| 2026-05-04 11:20 | 45.64752 | 9.31174 | 13061 ft | 361 kts | 92° |
| 2026-05-04 11:20 | 45.64770 | 9.34778 | 13671 ft | 365 kts | 92° |
| 2026-05-04 11:20 | 45.64782 | 9.38430 | 14293 ft | 370 kts | 92° |
| 2026-05-04 11:22 | 45.64824 | 9.56389 | 17037 ft | 379 kts | 92° |
| 2026-05-04 11:22 | 45.64829 | 9.60179 | 17578 ft | 382 kts | 92° |
| 2026-05-04 11:23 | 45.64833 | 9.63989 | 18125 ft | 385 kts | 92° |
| 2026-05-04 11:23 | 45.64842 | 9.67833 | 18637 ft | 389 kts | 92° |
| 2026-05-04 11:24 | 45.64911 | 9.91492 | 21448 ft | 406 kts | 92° |
| 2026-05-04 11:25 | 45.64916 | 9.95543 | 21878 ft | 409 kts | 92° |
| 2026-05-04 11:25 | 45.64918 | 9.99622 | 22295 ft | 412 kts | 92° |
| 2026-05-04 11:25 | 45.64918 | 10.03728 | 22704 ft | 415 kts | 91° |
| 2026-05-04 11:26 | 45.65824 | 10.11866 | 23498 ft | 424 kts | 71° |
| 2026-05-04 11:27 | 45.77551 | 10.36950 | 25991 ft | 442 kts | 54° |
| 2026-05-04 11:28 | 45.79336 | 10.40551 | 26341 ft | 444 kts | 54° |
| 2026-05-04 11:28 | 45.81084 | 10.44143 | 26669 ft | 447 kts | 56° |
| 2026-05-04 11:28 | 45.82788 | 10.47880 | 27014 ft | 449 kts | 58° |
| 2026-05-04 11:28 | 45.84434 | 10.51699 | 27353 ft | 452 kts | 59° |
| 2026-05-04 11:29 | 45.86053 | 10.55573 | 27696 ft | 454 kts | 59° |
| 2026-05-04 11:29 | 45.87674 | 10.59479 | 28032 ft | 456 kts | 59° |
| 2026-05-04 11:29 | 45.89307 | 10.63385 | 28385 ft | 458 kts | 59° |
| 2026-05-04 11:29 | 45.90965 | 10.67305 | 28747 ft | 460 kts | 59° |
| 2026-05-04 11:31 | 46.02719 | 10.94828 | 31486 ft | 459 kts | 59° |
| 2026-05-04 11:33 | 46.14179 | 11.21992 | 34181 ft | 454 kts | 59° |
| 2026-05-04 11:33 | 46.17458 | 11.29825 | 34086 ft | 457 kts | 59° |
| 2026-05-04 11:34 | 46.20750 | 11.37684 | 34085 ft | 458 kts | 59° |
| 2026-05-04 11:34 | 46.24016 | 11.45502 | 34087 ft | 458 kts | 59° |
| 2026-05-04 11:35 | 46.27295 | 11.53389 | 34088 ft | 458 kts | 59° |
| 2026-05-04 11:35 | 46.30562 | 11.61286 | 34095 ft | 458 kts | 59° |
| 2026-05-04 11:36 | 46.33838 | 11.69201 | 34104 ft | 458 kts | 59° |
| 2026-05-04 11:36 | 46.37107 | 11.77111 | 34087 ft | 458 kts | 59° |
| 2026-05-04 11:37 | 46.40345 | 11.84992 | 34089 ft | 458 kts | 59° |
| 2026-05-04 11:37 | 46.43600 | 11.92940 | 34076 ft | 459 kts | 59° |
| 2026-05-04 11:38 | 46.46856 | 12.00905 | 34097 ft | 459 kts | 59° |
| 2026-05-04 11:38 | 46.50104 | 12.08886 | 34080 ft | 459 kts | 59° |
| 2026-05-04 11:39 | 46.53331 | 12.16823 | 34084 ft | 459 kts | 59° |
| 2026-05-04 11:41 | 46.64650 | 12.44872 | 34139 ft | 460 kts | 59° |
| 2026-05-04 11:41 | 46.67873 | 12.52918 | 34113 ft | 460 kts | 59° |
| 2026-05-04 11:42 | 46.70524 | 12.61289 | 34107 ft | 459 kts | 75° |
| 2026-05-04 11:42 | 46.71645 | 12.70418 | 34077 ft | 459 kts | 83° |
| 2026-05-04 11:43 | 46.72510 | 12.79644 | 34077 ft | 460 kts | 83° |
| 2026-05-04 11:43 | 46.73382 | 12.88878 | 34086 ft | 460 kts | 83° |
| 2026-05-04 11:44 | 46.74256 | 12.98067 | 34079 ft | 461 kts | 83° |
| 2026-05-04 11:44 | 46.75128 | 13.07341 | 34093 ft | 462 kts | 83° |
| 2026-05-04 11:45 | 46.75981 | 13.16622 | 34092 ft | 461 kts | 83° |
| 2026-05-04 11:45 | 46.76821 | 13.25890 | 34095 ft | 461 kts | 83° |
| 2026-05-04 11:46 | 46.77655 | 13.35156 | 34091 ft | 461 kts | 83° |
| 2026-05-04 11:46 | 46.78481 | 13.44425 | 34089 ft | 461 kts | 83° |
| 2026-05-04 11:47 | 46.79298 | 13.53625 | 34088 ft | 460 kts | 83° |
| 2026-05-04 11:47 | 46.80114 | 13.62895 | 34076 ft | 461 kts | 82° |
| 2026-05-04 11:48 | 46.80917 | 13.72184 | 34056 ft | 461 kts | 83° |
| 2026-05-04 11:48 | 46.81718 | 13.81472 | 34067 ft | 461 kts | 82° |
| 2026-05-04 11:49 | 46.82512 | 13.90699 | 34069 ft | 461 kts | 83° |
| 2026-05-04 11:49 | 46.83299 | 13.99993 | 34060 ft | 461 kts | 83° |
| 2026-05-04 11:50 | 46.84075 | 14.09282 | 34073 ft | 460 kts | 83° |
| 2026-05-04 11:50 | 46.84842 | 14.18562 | 34072 ft | 460 kts | 83° |
| 2026-05-04 11:51 | 46.85600 | 14.27765 | 34069 ft | 459 kts | 83° |
| 2026-05-04 11:51 | 46.86361 | 14.37031 | 34070 ft | 459 kts | 83° |
| 2026-05-04 11:52 | 46.87104 | 14.46303 | 34073 ft | 459 kts | 83° |
| 2026-05-04 11:52 | 46.87831 | 14.55559 | 34080 ft | 459 kts | 83° |
| 2026-05-04 11:53 | 46.88432 | 14.63251 | 34081 ft | 458 kts | 83° |
| 2026-05-04 11:53 | 46.89271 | 14.74014 | 34077 ft | 458 kts | 83° |
| 2026-05-04 11:55 | 46.92072 | 15.10926 | 34072 ft | 457 kts | 83° |
| 2026-05-04 11:56 | 46.92756 | 15.20165 | 34068 ft | 457 kts | 83° |
| 2026-05-04 11:56 | 46.93316 | 15.27838 | 34068 ft | 457 kts | 83° |
| 2026-05-04 11:57 | 46.93982 | 15.37086 | 34076 ft | 457 kts | 82° |
| 2026-05-04 11:57 | 46.94645 | 15.46326 | 34075 ft | 456 kts | 82° |
| 2026-05-04 11:58 | 46.95299 | 15.55554 | 34079 ft | 456 kts | 83° |
| 2026-05-04 11:58 | 46.95936 | 15.64705 | 34068 ft | 456 kts | 83° |
| 2026-05-04 11:59 | 46.96569 | 15.73939 | 34062 ft | 455 kts | 83° |
| 2026-05-04 11:59 | 46.97191 | 15.83163 | 34072 ft | 455 kts | 83° |
| 2026-05-04 12:00 | 46.97814 | 15.92380 | 34071 ft | 455 kts | 83° |
| 2026-05-04 12:00 | 46.98424 | 16.01532 | 34059 ft | 455 kts | 83° |
| 2026-05-04 12:01 | 46.99026 | 16.10750 | 34069 ft | 455 kts | 83° |
| 2026-05-04 12:02 | 47.04387 | 16.41811 | 34065 ft | 451 kts | 69° |
| 2026-05-04 12:03 | 47.06427 | 16.50508 | 34075 ft | 451 kts | 69° |
| 2026-05-04 12:03 | 47.08464 | 16.59212 | 34072 ft | 451 kts | 69° |
| 2026-05-04 12:04 | 47.10489 | 16.67918 | 34073 ft | 451 kts | 69° |
| 2026-05-04 12:04 | 47.12507 | 16.76617 | 34077 ft | 450 kts | 69° |
| 2026-05-04 12:05 | 47.14516 | 16.85247 | 34081 ft | 449 kts | 69° |
| 2026-05-04 12:05 | 47.16522 | 16.93924 | 34073 ft | 448 kts | 69° |
| 2026-05-04 12:06 | 47.18516 | 17.02607 | 34075 ft | 448 kts | 69° |
| 2026-05-04 12:06 | 47.20502 | 17.11292 | 33811 ft | 446 kts | 69° |
| 2026-05-04 12:07 | 47.21485 | 17.15603 | 33542 ft | 444 kts | 69° |
| 2026-05-04 12:07 | 47.22448 | 17.19840 | 33281 ft | 442 kts | 69° |
| 2026-05-04 12:07 | 47.23417 | 17.24111 | 33014 ft | 439 kts | 69° |
| 2026-05-04 12:07 | 47.24380 | 17.28362 | 32754 ft | 437 kts | 69° |
| 2026-05-04 12:08 | 47.25341 | 17.32607 | 32483 ft | 436 kts | 69° |
| 2026-05-04 12:08 | 47.26320 | 17.36813 | 32227 ft | 434 kts | 68° |
| 2026-05-04 12:08 | 47.27348 | 17.40978 | 31968 ft | 431 kts | 68° |
| 2026-05-04 12:08 | 47.28394 | 17.45086 | 31532 ft | 427 kts | 67° |
| 2026-05-04 12:09 | 47.29443 | 17.49162 | 31052 ft | 424 kts | 67° |
| 2026-05-04 12:09 | 47.30481 | 17.53213 | 30593 ft | 422 kts | 67° |
| 2026-05-04 12:09 | 47.31509 | 17.57264 | 30103 ft | 421 kts | 68° |
| 2026-05-04 12:09 | 47.32507 | 17.61233 | 29614 ft | 417 kts | 68° |
| 2026-05-04 12:10 | 47.33504 | 17.65236 | 29153 ft | 414 kts | 68° |
| 2026-05-04 12:10 | 47.34484 | 17.69200 | 28726 ft | 410 kts | 68° |
| 2026-05-04 12:10 | 47.35454 | 17.73137 | 28279 ft | 407 kts | 68° |
| 2026-05-04 12:10 | 47.36415 | 17.77044 | 27852 ft | 404 kts | 68° |
| 2026-05-04 12:11 | 47.37371 | 17.80925 | 27432 ft | 400 kts | 69° |
| 2026-05-04 12:11 | 47.38124 | 17.84862 | 27019 ft | 399 kts | 78° |
| 2026-05-04 12:11 | 47.38414 | 17.88920 | 26619 ft | 397 kts | 89° |
| 2026-05-04 12:11 | 47.38346 | 17.92989 | 26222 ft | 395 kts | 91° |
| 2026-05-04 12:12 | 47.38257 | 17.97024 | 25822 ft | 393 kts | 91° |
| 2026-05-04 12:12 | 47.38174 | 18.00986 | 25429 ft | 390 kts | 91° |
| 2026-05-04 12:12 | 47.38092 | 18.04971 | 25030 ft | 388 kts | 92° |
| 2026-05-04 12:12 | 47.38012 | 18.08935 | 24626 ft | 386 kts | 92° |
| 2026-05-04 12:13 | 47.37930 | 18.12878 | 24222 ft | 384 kts | 92° |
| 2026-05-04 12:14 | 47.33623 | 18.38230 | 21245 ft | 361 kts | 122° |
| 2026-05-04 12:15 | 47.32329 | 18.41388 | 20817 ft | 359 kts | 122° |
| 2026-05-04 12:15 | 47.31045 | 18.44528 | 20392 ft | 357 kts | 122° |
| 2026-05-04 12:15 | 47.29766 | 18.47651 | 19970 ft | 355 kts | 122° |
| 2026-05-04 12:15 | 47.28496 | 18.50753 | 19537 ft | 353 kts | 122° |
| 2026-05-04 12:16 | 47.27233 | 18.53837 | 19129 ft | 351 kts | 121° |
| 2026-05-04 12:16 | 47.25986 | 18.56872 | 18710 ft | 350 kts | 121° |
| 2026-05-04 12:16 | 47.24729 | 18.59924 | 18272 ft | 348 kts | 121° |
| 2026-05-04 12:16 | 47.23479 | 18.62960 | 17831 ft | 345 kts | 121° |
| 2026-05-04 12:17 | 47.22241 | 18.65964 | 17413 ft | 342 kts | 121° |
| 2026-05-04 12:17 | 47.21089 | 18.69006 | 16998 ft | 339 kts | 112° |
| 2026-05-04 12:17 | 47.20471 | 18.72332 | 16580 ft | 337 kts | 97° |
| 2026-05-04 12:17 | 47.20498 | 18.75760 | 16160 ft | 336 kts | 81° |
| 2026-05-04 12:18 | 47.21157 | 18.79046 | 15726 ft | 336 kts | 65° |
| 2026-05-04 12:18 | 47.22327 | 18.82010 | 15296 ft | 335 kts | 58° |
| 2026-05-04 12:18 | 47.23552 | 18.84869 | 14889 ft | 334 kts | 59° |
| 2026-05-04 12:18 | 47.24787 | 18.87758 | 14477 ft | 334 kts | 59° |
| 2026-05-04 12:19 | 47.26022 | 18.90656 | 14049 ft | 334 kts | 59° |
| 2026-05-04 12:19 | 47.27249 | 18.93541 | 13650 ft | 332 kts | 59° |
| 2026-05-04 12:19 | 47.28472 | 18.96425 | 13241 ft | 331 kts | 59° |
| 2026-05-04 12:19 | 47.29682 | 18.99278 | 12994 ft | 324 kts | 59° |
| 2026-05-04 12:20 | 47.30997 | 19.01907 | 12859 ft | 315 kts | 47° |
| 2026-05-04 12:20 | 47.32584 | 19.04095 | 12583 ft | 312 kts | 44° |
| 2026-05-04 12:20 | 47.34192 | 19.06243 | 12208 ft | 312 kts | 44° |
| 2026-05-04 12:20 | 47.35768 | 19.08358 | 11949 ft | 307 kts | 43° |
| 2026-05-04 12:21 | 47.37525 | 19.10037 | 11823 ft | 300 kts | 19° |
| 2026-05-04 12:21 | 47.39556 | 19.10348 | 11678 ft | 292 kts | 350° |
| 2026-05-04 12:21 | 47.41409 | 19.09257 | 11433 ft | 287 kts | 321° |
| 2026-05-04 12:21 | 47.42818 | 19.07196 | 11161 ft | 285 kts | 311° |
| 2026-05-04 12:22 | 47.44142 | 19.05031 | 10891 ft | 283 kts | 311° |
| 2026-05-04 12:22 | 47.45456 | 19.02880 | 10623 ft | 281 kts | 311° |
| 2026-05-04 12:22 | 47.46778 | 19.00722 | 10111 ft | 290 kts | 310° |
| 2026-05-04 12:22 | 47.48131 | 18.98514 | 9369 ft | 296 kts | 310° |
| 2026-05-04 12:23 | 47.49516 | 18.96250 | 8620 ft | 298 kts | 310° |
| 2026-05-04 12:23 | 47.50909 | 18.93974 | 7887 ft | 298 kts | 309° |
| 2026-05-04 12:23 | 47.52303 | 18.91700 | 7269 ft | 296 kts | 309° |
| 2026-05-04 12:23 | 47.53637 | 18.89494 | 7051 ft | 279 kts | 311° |
| 2026-05-04 12:24 | 47.55177 | 18.87920 | 6879 ft | 265 kts | 339° |
| 2026-05-04 12:24 | 47.56982 | 18.87592 | 6466 ft | 265 kts | 8° |
| 2026-05-04 12:24 | 47.58684 | 18.88558 | 6026 ft | 263 kts | 32° |
| 2026-05-04 12:24 | 47.60193 | 18.90106 | 5566 ft | 263 kts | 39° |
| 2026-05-04 12:25 | 47.61428 | 18.92060 | 5121 ft | 259 kts | 68° |
| 2026-05-04 12:25 | 47.61690 | 18.94535 | 4984 ft | 247 kts | 107° |
| 2026-05-04 12:25 | 47.60879 | 18.96671 | 4915 ft | 238 kts | 142° |
| 2026-05-04 12:25 | 47.59588 | 18.98183 | 4661 ft | 237 kts | 141° |
| 2026-05-04 12:26 | 47.58437 | 18.99952 | 4345 ft | 240 kts | 135° |
| 2026-05-04 12:26 | 47.57325 | 19.01803 | 4041 ft | 240 kts | 136° |
| 2026-05-04 12:26 | 47.56212 | 19.03635 | 3721 ft | 235 kts | 135° |
| 2026-05-04 12:26 | 47.55156 | 19.05363 | 3428 ft | 220 kts | 137° |
| 2026-05-04 12:27 | 47.54164 | 19.06981 | 3155 ft | 203 kts | 138° |
| 2026-05-04 12:27 | 47.53253 | 19.08468 | 2912 ft | 187 kts | 137° |
| 2026-05-04 12:27 | 47.52400 | 19.09852 | 2658 ft | 178 kts | 138° |
| 2026-05-04 12:27 | 47.51588 | 19.11172 | 2435 ft | 175 kts | 137° |
| 2026-05-04 12:28 | 47.50772 | 19.12495 | 2203 ft | 173 kts | 135° |
| 2026-05-04 12:28 | 47.49969 | 19.13801 | 1974 ft | 166 kts | 136° |
| 2026-05-04 12:28 | 47.49224 | 19.15014 | 1752 ft | 153 kts | 137° |
| 2026-05-04 12:28 | 47.48526 | 19.16148 | 1573 ft | 145 kts | 136° |
| 2026-05-04 12:29 | 47.47853 | 19.17240 | 1373 ft | 141 kts | 138° |
| 2026-05-04 12:29 | 47.47201 | 19.18297 | 1182 ft | 139 kts | 137° |
| 2026-05-04 12:29 | 47.46548 | 19.19361 | 998 ft | 140 kts | 137° |
| 2026-05-04 12:29 | 47.45892 | 19.20434 | 787 ft | 141 kts | 136° |
| 2026-05-04 12:30 | 47.45220 | 19.21520 | 598 ft | 144 kts | 136° |
| 2026-05-04 12:30 | 47.44550 | 19.22612 | 456 ft | 135 kts | 137° |
| 2026-05-04 12:30 | 47.44013 | 19.23463 | 455 ft | 91 kts | 131° |
| 2026-05-04 12:30 | 47.43701 | 19.23965 | 454 ft | 42 kts | 131° |
| 2026-05-04 12:31 | 47.43549 | 19.24226 | 452 ft | 29 kts | 131° |
| 2026-05-04 12:31 | 47.43414 | 19.24434 | 452 ft | 28 kts | 133° |
| 2026-05-04 12:31 | 47.43286 | 19.24641 | 454 ft | 27 kts | 131° |
| 2026-05-04 12:31 | 47.43166 | 19.24832 | 456 ft | 26 kts | 133° |
| 2026-05-04 12:32 | 47.43102 | 19.25024 | 455 ft | 19 kts | 69° |
| 2026-05-04 12:32 | 47.43301 | 19.25328 | 457 ft | 21 kts | 45° |
| 2026-05-04 12:32 | 47.43338 | 19.25433 | 457 ft | 12 kts | 110° |
| 2026-05-04 12:33 | 47.43296 | 19.25543 | 457 ft | 13 kts | 86° |
| 2026-05-04 12:33 | 47.43359 | 19.25649 | 457 ft | 15 kts | 43° |
| 2026-05-04 12:33 | 47.43439 | 19.25758 | 456 ft | 17 kts | 43° |
| 2026-05-04 12:33 | 47.43466 | 19.25862 | 455 ft | 10 kts | 129° |
| 2026-05-04 12:34 | 47.43417 | 19.25913 | 457 ft | 3 kts | 216° |
| 2026-05-04 12:34 | 47.43401 | 19.25892 | 457 ft | 5 kts | 222° |
| 2026-05-04 12:34 | 47.43369 | 19.25848 | 456 ft | 8 kts | 223° |
| 2026-05-04 12:34 | 47.43360 | 19.25836 | 457 ft | 0 kts | 223° |